Time;durP1;ratioP1;P1;durP2;ratioP2;P2;SDS_P1;SDS_P2;PMS_P1;PMS_P2;Temp;Humidity;BMP_temperature;BMP_pressure;BME280_temperature;BME280_humidity;BME280_pressure;Samples;Min_cycle;Max_cycle;Signal;HPM_P1;HPM_P2
2022/01/08 00:00:43;;;;;;;12.45;3.00;;;;;;;0.96;78.65;101091.13;5023852;28;20025;-69
2022/01/08 00:03:08;;;;;;;9.40;2.47;;;;;;;0.94;78.91;101103.25;5012416;28;20038;-71
2022/01/08 00:05:33;;;;;;;8.95;2.17;;;;;;;1.03;78.50;101101.59;5017903;28;20136;-71
2022/01/08 00:07:59;;;;;;;12.93;2.50;;;;;;;1.12;78.04;101104.28;5027953;28;20029;-69
2022/01/08 00:10:24;;;;;;;9.82;2.55;;;;;;;1.15;77.76;101100.81;5012907;28;20029;-70
2022/01/08 00:12:51;;;;;;;17.65;3.00;;;;;;;1.20;77.63;101104.34;5031535;28;20104;-71
2022/01/08 00:15:16;;;;;;;7.45;2.40;;;;;;;1.22;77.26;101106.09;5013277;28;20046;-71
2022/01/08 00:17:42;;;;;;;13.95;2.50;;;;;;;1.29;76.64;101107.00;5029110;28;20461;-70
2022/01/08 00:20:08;;;;;;;14.10;2.90;;;;;;;1.41;75.51;101108.00;5021332;28;20477;-71
2022/01/08 00:22:33;;;;;;;8.85;2.45;;;;;;;1.48;75.19;101105.44;5011207;28;20034;-71
2022/01/08 00:24:58;;;;;;;12.45;2.47;;;;;;;1.57;74.71;101108.97;5010585;28;20018;-70
2022/01/08 00:27:24;;;;;;;8.30;2.00;;;;;;;1.61;74.42;101121.13;5012978;28;20029;-70
2022/01/08 00:29:50;;;;;;;12.00;2.13;;;;;;;1.62;74.56;101118.53;5020349;28;20831;-71
2022/01/08 00:32:16;;;;;;;4.90;1.58;;;;;;;1.62;74.59;101128.94;5032166;28;20025;-69
2022/01/08 00:34:42;;;;;;;9.18;2.00;;;;;;;1.62;74.77;101125.44;5021775;28;20034;-70
2022/01/08 00:37:08;;;;;;;5.15;2.05;;;;;;;1.59;74.96;101123.72;5023017;28;20041;-68
2022/01/08 00:39:33;;;;;;;12.75;2.22;;;;;;;1.60;74.71;101124.59;5016615;28;20041;-69
2022/01/08 00:41:59;;;;;;;13.63;2.13;;;;;;;1.63;74.49;101124.63;5037884;28;20069;-69
2022/01/08 00:44:24;;;;;;;4.88;2.10;;;;;;;1.63;74.16;101125.47;5052378;28;20031;-67
2022/01/08 00:46:49;;;;;;;11.80;2.03;;;;;;;1.67;73.97;101122.91;5051201;28;20068;-71
2022/01/08 00:49:15;;;;;;;11.48;1.85;;;;;;;1.70;73.73;101113.41;5050709;28;20023;-68
2022/01/08 00:51:40;;;;;;;4.63;2.17;;;;;;;1.70;73.58;101103.03;5027920;28;20026;-68
2022/01/08 00:54:06;;;;;;;10.13;2.13;;;;;;;1.67;73.99;101095.19;5026687;28;20040;-70
2022/01/08 00:56:31;;;;;;;6.13;1.40;;;;;;;1.66;74.01;101108.19;5029034;28;20535;-71
2022/01/08 00:58:56;;;;;;;9.80;1.73;;;;;;;1.61;73.90;101110.75;5021548;28;20044;-69
2022/01/08 01:01:22;;;;;;;10.18;2.05;;;;;;;1.65;74.18;101112.50;5012651;28;20026;-69
2022/01/08 01:03:47;;;;;;;5.65;2.38;;;;;;;1.69;74.15;101113.41;5020658;28;20061;-69
2022/01/08 01:06:12;;;;;;;12.05;2.60;;;;;;;1.66;73.98;101113.38;5025826;28;20036;-70
2022/01/08 01:08:38;;;;;;;8.30;1.92;;;;;;;1.66;74.16;101114.25;5027932;28;20021;-70
2022/01/08 01:11:03;;;;;;;8.13;1.85;;;;;;;1.66;73.92;101113.38;5027625;28;20126;-69
2022/01/08 01:13:28;;;;;;;12.20;2.42;;;;;;;1.62;74.22;101133.25;5025213;28;20493;-69
2022/01/08 01:15:54;;;;;;;11.43;2.30;;;;;;;1.61;74.04;101131.53;5028490;28;20531;-70
2022/01/08 01:18:19;;;;;;;8.93;1.73;;;;;;;1.62;73.84;101117.66;5023576;28;20041;-69
2022/01/08 01:20:45;;;;;;;12.50;2.25;;;;;;;1.62;73.96;101121.13;5011788;28;20026;-69
2022/01/08 01:23:18;;;;;;;7.88;1.70;;;;;;;1.61;73.87;101121.13;5007459;28;20252;-69
2022/01/08 01:25:51;;;;;;;14.02;2.10;;;;;;;1.51;73.94;101128.84;5016330;28;20029;-69
2022/01/08 01:47:11;;;;;;;18.70;1.75;;;;;;;1.49;74.21;101127.97;5010264;28;20041;-69
2022/01/08 01:49:39;;;;;;;8.55;1.83;;;;;;;1.55;74.09;101126.28;5021682;28;20025;-70
2022/01/08 01:52:06;;;;;;;9.53;2.67;;;;;;;1.56;73.93;101134.06;5047573;28;20028;-71
2022/01/08 01:54:32;;;;;;;9.13;1.77;;;;;;;1.57;74.12;101137.56;5026168;28;20388;-69
2022/01/08 01:56:59;;;;;;;9.93;1.92;;;;;;;1.57;74.31;101140.16;5026343;28;20468;-70
2022/01/08 01:59:26;;;;;;;4.78;1.80;;;;;;;1.53;74.58;101149.63;5019853;28;20033;-69
2022/01/08 02:01:51;;;;;;;14.93;1.83;;;;;;;1.57;74.75;101147.94;5019298;28;20032;-68
2022/01/08 02:04:16;;;;;;;4.40;1.85;;;;;;;1.56;74.73;101146.22;5027693;28;20120;-68
2022/01/08 02:06:42;;;;;;;13.57;2.13;;;;;;;1.63;74.63;101146.25;5026472;28;20060;-68
2022/01/08 02:09:07;;;;;;;11.70;2.13;;;;;;;1.68;74.44;101146.28;5069333;22;20053;-70
2022/01/08 02:11:33;;;;;;;9.02;1.73;;;;;;;1.69;74.58;101149.78;5038648;28;20035;-69
2022/01/08 02:14:04;;;;;;;9.05;1.80;;;;;;;1.73;74.40;101146.34;5043016;28;20025;-69
2022/01/08 02:16:30;;;;;;;14.32;1.70;;;;;;;1.79;74.24;101145.50;5027781;28;20431;-69
2022/01/08 02:18:55;;;;;;;9.77;2.22;;;;;;;1.84;74.00;101143.81;5030747;28;20068;-71
2022/01/08 02:21:21;;;;;;;6.65;1.27;;;;;;;1.82;74.20;101148.13;5036792;28;20041;-70
2022/01/08 02:23:48;;;;;;;9.43;2.20;;;;;;;1.83;74.55;101144.66;5046489;28;20025;-71
2022/01/08 02:26:13;;;;;;;13.43;1.70;;;;;;;1.87;74.40;101146.44;5055548;28;20020;-69
2022/01/08 02:28:40;;;;;;;8.20;1.75;;;;;;;1.93;74.43;101140.41;5067025;28;20032;-68
2022/01/08 02:31:06;;;;;;;8.15;1.40;;;;;;;1.94;74.37;101149.94;5047362;28;20160;-70
2022/01/08 02:33:32;;;;;;;11.50;1.92;;;;;;;1.97;74.56;101139.56;5027196;28;20029;-69
2022/01/08 02:35:58;;;;;;;9.65;1.55;;;;;;;1.97;74.61;101137.84;5046556;28;20029;-69
2022/01/08 02:38:24;;;;;;;11.25;2.10;;;;;;;1.96;74.87;101143.03;5046302;28;20035;-69
2022/01/08 02:40:55;;;;;;;9.38;1.80;;;;;;;1.96;74.90;101132.66;5060967;28;20345;-70
2022/01/08 02:43:20;;;;;;;10.23;2.40;;;;;;;1.92;75.36;101138.69;5035258;28;20104;-68
2022/01/08 02:45:45;;;;;;;5.50;1.65;;;;;;;1.89;75.34;101132.59;5050681;28;20215;-70
2022/01/08 02:48:11;;;;;;;5.43;1.85;;;;;;;1.88;75.80;101141.25;5061037;28;20516;-68
2022/01/08 02:50:37;;;;;;;9.38;1.95;;;;;;;1.89;75.85;101142.13;5065219;28;20471;-70
2022/01/08 02:53:02;;;;;;;6.47;1.58;;;;;;;1.85;76.14;101137.75;5029203;28;20084;-70
2022/01/08 02:55:27;;;;;;;10.70;2.10;;;;;;;1.82;76.38;101135.13;5026337;28;20544;-69
2022/01/08 02:57:53;;;;;;;9.40;2.13;;;;;;;1.79;76.40;101140.31;5030839;28;20032;-70
2022/01/08 03:00:19;;;;;;;10.98;2.70;;;;;;;1.68;76.81;101133.31;5036889;28;20058;-70
2022/01/08 03:02:46;;;;;;;9.65;1.73;;;;;;;1.67;76.95;101133.28;5045285;28;20103;-69
2022/01/08 03:05:12;;;;;;;15.93;2.03;;;;;;;1.63;77.08;101132.41;5044104;28;20120;-71
2022/01/08 03:07:41;;;;;;;10.13;2.15;;;;;;;1.60;77.36;101133.22;5037329;28;20023;-69
2022/01/08 03:10:08;;;;;;;12.88;1.75;;;;;;;1.59;77.35;101133.22;5045197;28;20078;-70
2022/01/08 03:12:33;;;;;;;7.63;1.48;;;;;;;1.54;77.41;101130.63;5046309;28;20107;-69
2022/01/08 03:14:59;;;;;;;12.15;2.35;;;;;;;1.49;77.45;101133.16;5028409;28;20104;-69
2022/01/08 03:17:24;;;;;;;9.18;1.67;;;;;;;1.47;77.90;101128.78;5042428;28;20079;-69
2022/01/08 03:19:54;;;;;;;13.82;1.92;;;;;;;1.45;77.96;101127.94;5013677;28;20067;-69
2022/01/08 03:22:19;;;;;;;;;;;;;;;1.49;77.86;101127.09;5030057;28;20027;-68
2022/01/08 03:24:44;;;;;;;8.27;2.00;;;;;;;1.46;77.87;101121.88;5025278;28;19936;-67
2022/01/08 03:27:11;;;;;;;4.47;1.27;;;;;;;1.36;77.77;101120.94;5008810;28;20025;-69
2022/01/08 03:29:36;;;;;;;12.85;2.33;;;;;;;1.31;78.21;101130.38;5037214;28;20838;-70
2022/01/08 03:32:01;;;;;;;12.48;2.08;;;;;;;1.29;78.36;101135.56;5006885;28;20108;-70
2022/01/08 03:34:27;;;;;;;2.85;1.40;;;;;;;1.29;78.69;101137.31;5037342;28;20124;-68
2022/01/08 03:36:52;;;;;;;6.57;1.38;;;;;;;1.26;78.45;101136.41;5012904;28;20037;-67
2022/01/08 03:39:18;;;;;;;15.68;2.47;;;;;;;1.26;78.50;101135.53;5043554;28;20116;-70
2022/01/08 03:41:45;;;;;;;11.02;1.80;;;;;;;1.25;78.49;101145.06;5035116;28;20048;-70
2022/01/08 03:44:10;;;;;;;11.57;2.08;;;;;;;1.20;78.44;101145.88;5046330;28;20566;-70
2022/01/08 03:46:36;;;;;;;5.75;2.05;;;;;;;1.16;78.85;101129.41;5044738;28;20104;-70
2022/01/08 03:51:31;;;;;;;16.05;2.22;;;;;;;1.04;79.16;101130.16;5036073;28;20037;-71
2022/01/08 03:53:57;;;;;;;9.15;1.67;;;;;;;1.09;79.40;101128.44;5026229;28;20398;-68
2022/01/08 03:56:23;;;;;;;10.55;1.83;;;;;;;1.11;79.23;101131.06;5044823;28;20108;-70
2022/01/08 03:58:48;;;;;;;8.68;2.00;;;;;;;1.07;79.16;101125.00;5044457;28;20017;-70
2022/01/08 04:01:14;;;;;;;8.40;1.63;;;;;;;1.07;79.38;101127.59;5046495;28;20123;-69
2022/01/08 04:03:39;;;;;;;11.10;2.00;;;;;;;1.03;79.26;101128.41;5045937;28;20028;-69
2022/01/08 04:06:04;;;;;;;13.60;2.22;;;;;;;1.02;79.29;101124.06;5044464;28;20029;-71
2022/01/08 04:08:30;;;;;;;5.88;1.40;;;;;;;1.03;79.48;101122.34;5044826;28;20072;-70
2022/01/08 04:10:55;;;;;;;5.35;1.77;;;;;;;0.99;79.50;101119.72;5026231;28;20064;-69
2022/01/08 04:13:29;;;;;;;7.35;1.75;;;;;;;0.97;79.50;101136.97;5041447;28;20128;-68
2022/01/08 04:16:07;;;;;;;6.25;1.80;;;;;;;0.93;79.52;101140.41;5026036;28;20053;-70
2022/01/08 04:18:32;;;;;;;5.03;1.60;;;;;;;0.93;79.65;101134.34;5025313;28;20108;-69
2022/01/08 04:23:51;;;;;;;10.90;2.15;;;;;;;0.95;79.86;101146.50;5008620;28;20744;-68
2022/01/08 04:26:16;;;;;;;6.68;2.20;;;;;;;0.93;79.75;101144.75;5045483;28;20057;-69
2022/01/08 04:28:41;;;;;;;10.65;3.00;;;;;;;0.89;79.83;101146.41;5046568;28;20071;-69
2022/01/08 04:31:07;;;;;;;6.20;1.83;;;;;;;0.88;79.98;101147.28;5047470;28;20104;-69
2022/01/08 04:33:32;;;;;;;7.70;1.73;;;;;;;0.82;80.21;101155.00;5029287;28;20041;-69
2022/01/08 04:35:57;;;;;;;6.22;2.10;;;;;;;0.76;80.17;101166.16;5028213;28;20024;-68
2022/01/08 04:38:23;;;;;;;10.00;2.40;;;;;;;0.73;80.42;101166.13;5027150;28;20033;-69
2022/01/08 04:40:48;;;;;;;8.68;1.70;;;;;;;0.70;80.87;101169.56;5037121;28;20017;-69
2022/01/08 04:43:14;;;;;;;15.52;2.50;;;;;;;0.69;80.81;101167.81;5049324;28;20037;-69
2022/01/08 04:45:39;;;;;;;18.45;2.10;;;;;;;0.73;81.28;101176.50;5048249;28;20021;-69
2022/01/08 04:48:06;;;;;;;4.93;2.00;;;;;;;0.75;81.24;101170.47;5048904;28;20040;-68
2022/01/08 04:50:32;;;;;;;5.93;2.03;;;;;;;0.79;81.13;101170.50;5048494;28;20368;-70
2022/01/08 04:52:58;;;;;;;11.20;2.00;;;;;;;0.80;81.27;101175.72;5048222;28;20351;-70
2022/01/08 04:55:24;;;;;;;6.75;1.98;;;;;;;0.84;81.29;101174.06;5047501;28;20017;-69
2022/01/08 04:57:50;;;;;;;5.25;2.28;;;;;;;0.87;81.21;101180.13;5029907;28;20017;-69
2022/01/08 05:00:16;;;;;;;10.65;1.90;;;;;;;0.87;81.25;101185.31;5048284;28;20020;-69
2022/01/08 05:02:41;;;;;;;11.57;2.25;;;;;;;0.93;81.18;101173.28;5030105;28;20035;-69
2022/01/08 05:05:07;;;;;;;7.68;1.67;;;;;;;0.93;81.27;101166.34;5048050;28;20021;-69
2022/01/08 05:07:33;;;;;;;10.57;2.05;;;;;;;0.95;81.21;101169.84;5046986;28;20025;-69
2022/01/08 05:09:58;;;;;;;4.10;1.85;;;;;;;0.96;80.80;101163.78;5030508;28;20295;-71
2022/01/08 05:12:23;;;;;;;13.48;2.78;;;;;;;0.96;80.58;101166.38;5030402;28;20368;-70
2022/01/08 05:14:49;;;;;;;12.50;2.40;;;;;;;0.96;80.45;101168.13;5058754;28;20130;-70
2022/01/08 05:17:14;;;;;;;9.38;2.17;;;;;;;0.95;80.46;101166.38;5068548;28;20433;-71
2022/01/08 05:19:50;;;;;;;14.07;2.47;;;;;;;0.91;80.71;101164.59;5067756;28;20470;-70
2022/01/08 05:22:28;;;;;;;13.63;2.33;;;;;;;0.92;80.83;101166.34;5068467;28;20024;-70
2022/01/08 05:24:54;;;;;;;8.82;1.92;;;;;;;0.87;80.72;101163.69;5068003;28;20024;-69
2022/01/08 05:27:20;;;;;;;11.55;2.42;;;;;;;0.85;80.81;101165.41;5058657;28;20028;-70
2022/01/08 05:29:46;;;;;;;8.35;2.50;;;;;;;0.78;80.83;101179.16;5047730;28;20043;-69
2022/01/08 05:32:18;;;;;;;10.65;2.60;;;;;;;0.73;81.04;101186.88;5047932;28;20076;-69
2022/01/08 05:34:44;;;;;;;7.75;2.40;;;;;;;0.72;81.32;101183.41;5050959;28;20027;-70
2022/01/08 05:37:10;;;;;;;6.03;2.00;;;;;;;0.75;81.40;101187.75;5061831;28;20032;-69
2022/01/08 05:39:35;;;;;;;12.82;2.70;;;;;;;0.80;81.08;101187.81;5067283;28;20021;-72
2022/01/08 05:42:01;;;;;;;10.82;2.67;;;;;;;0.90;80.74;101194.84;5066397;28;20024;-71
2022/01/08 05:44:26;;;;;;;9.05;2.38;;;;;;;0.98;80.44;101190.66;5049939;28;20052;-69
2022/01/08 05:46:51;;;;;;;10.57;1.83;;;;;;;1.08;80.30;101198.53;5067478;28;20382;-70
2022/01/08 05:49:17;;;;;;;7.72;2.33;;;;;;;1.15;80.04;101191.69;5067345;28;20016;-71
2022/01/08 05:51:43;;;;;;;6.85;2.20;;;;;;;1.22;79.63;101196.97;5068326;28;20024;-71
2022/01/08 05:54:08;;;;;;;10.48;2.13;;;;;;;1.28;79.39;101190.97;5067144;28;20012;-70
2022/01/08 05:56:34;;;;;;;6.53;1.88;;;;;;;1.36;79.08;101191.03;5049246;28;20024;-69
2022/01/08 05:58:59;;;;;;;7.50;2.33;;;;;;;1.41;79.02;101181.56;5067161;28;20021;-69
2022/01/08 06:01:25;;;;;;;13.57;2.10;;;;;;;1.39;78.93;101178.94;5067689;28;20070;-70
2022/01/08 06:03:50;;;;;;;13.00;2.22;;;;;;;1.41;79.37;101181.56;5066648;28;20044;-70
2022/01/08 06:06:15;;;;;;;10.70;2.30;;;;;;;1.40;79.36;101185.00;5067642;28;20327;-70
2022/01/08 06:08:40;;;;;;;12.43;2.35;;;;;;;1.42;79.14;101178.13;5066996;28;20047;-70
2022/01/08 06:11:06;;;;;;;8.07;2.50;;;;;;;1.43;79.26;101166.88;5067021;28;20044;-69
2022/01/08 06:13:31;;;;;;;6.68;2.13;;;;;;;1.45;79.12;101172.06;5042765;28;20091;-69
2022/01/08 06:15:56;;;;;;;3.63;1.67;;;;;;;1.49;78.84;101174.72;5049341;28;20498;-70
2022/01/08 06:18:22;;;;;;;9.32;2.25;;;;;;;1.50;78.84;101171.25;5047459;28;20478;-70
2022/01/08 06:20:47;;;;;;;20.15;2.70;;;;;;;1.51;78.76;101166.94;5046459;28;20082;-69
2022/01/08 06:23:12;;;;;;;12.23;2.20;;;;;;;1.51;78.53;101166.94;5062408;28;20021;-69
2022/01/08 06:25:43;;;;;;;6.45;1.80;;;;;;;1.47;78.96;101163.44;5065609;28;20100;-68
2022/01/08 06:28:08;;;;;;;8.80;2.55;;;;;;;1.49;78.75;101164.34;5066290;28;20039;-71
2022/01/08 06:30:33;;;;;;;14.27;2.78;;;;;;;1.44;78.88;101159.97;5065294;28;20032;-69
2022/01/08 06:32:59;;;;;;;14.13;2.45;;;;;;;1.42;79.05;101156.47;5047173;28;20117;-69
2022/01/08 06:35:24;;;;;;;9.50;2.35;;;;;;;1.42;78.99;101154.75;5047702;28;20080;-69
2022/01/08 06:37:49;;;;;;;4.70;1.92;;;;;;;1.43;79.24;101153.00;5046984;28;20101;-69
2022/01/08 06:40:15;;;;;;;7.07;2.40;;;;;;;1.49;78.86;101160.84;5047867;28;20368;-68
2022/01/08 06:42:40;;;;;;;11.70;2.17;;;;;;;1.50;79.13;101155.69;5048481;28;20036;-71
2022/01/08 06:45:06;;;;;;;12.02;3.53;;;;;;;1.59;78.96;101159.19;5047702;28;20021;-68
2022/01/08 06:47:33;;;;;;;7.15;1.80;;;;;;;1.61;78.85;101148.00;5065870;28;20101;-70
2022/01/08 06:49:59;;;;;;;7.22;2.30;;;;;;;1.63;78.58;101150.59;5065631;28;20035;-70
2022/01/08 06:52:24;;;;;;;8.35;2.15;;;;;;;1.67;78.83;101144.56;5065326;28;20028;-68
2022/01/08 06:54:49;;;;;;;2.92;1.80;;;;;;;1.70;78.64;101139.41;5066423;28;20359;-71
2022/01/08 06:57:15;;;;;;;12.55;2.10;;;;;;;1.73;78.68;101142.03;5064189;28;20029;-66
2022/01/08 06:59:40;;;;;;;7.30;1.98;;;;;;;1.81;78.68;101149.00;5046607;28;20025;-70
2022/01/08 07:02:05;;;;;;;9.48;1.85;;;;;;;1.86;78.41;101147.28;5044707;28;20021;-68
2022/01/08 07:04:30;;;;;;;10.48;2.20;;;;;;;1.90;78.40;101149.06;5011631;28;20032;-69
2022/01/08 07:06:56;;;;;;;7.75;2.35;;;;;;;1.92;78.29;101143.88;5046134;28;20037;-70
2022/01/08 07:09:22;;;;;;;8.52;2.95;;;;;;;1.93;78.28;101141.31;5047285;28;20702;-70
2022/01/08 07:11:47;;;;;;;14.63;2.20;;;;;;;1.93;77.79;101141.31;5065876;28;20528;-69
2022/01/08 07:14:13;;;;;;;11.63;2.50;;;;;;;1.94;77.93;101144.75;5065574;28;20039;-70
2022/01/08 07:16:38;;;;;;;6.30;2.33;;;;;;;1.89;78.05;101134.31;5064857;28;20443;-69
2022/01/08 07:19:03;;;;;;;5.40;2.03;;;;;;;1.89;78.34;101126.53;5059816;28;20024;-70
2022/01/08 07:21:29;;;;;;;8.68;1.83;;;;;;;1.91;78.57;101129.13;5065749;28;20494;-69
2022/01/08 07:23:56;;;;;;;10.15;2.00;;;;;;;1.95;78.24;101123.97;5050023;28;20490;-70
2022/01/08 07:26:21;;;;;;;5.88;1.95;;;;;;;1.97;78.53;101127.47;5044020;28;20066;-70
2022/01/08 07:28:46;;;;;;;15.13;2.30;;;;;;;1.99;78.48;101128.31;5027011;28;20099;-70
2022/01/08 07:31:12;;;;;;;8.85;1.75;;;;;;;2.01;78.60;101130.94;5045353;28;20540;-67
2022/01/08 07:33:37;;;;;;;14.27;2.38;;;;;;;2.02;78.89;101127.50;5044421;28;20104;-67
2022/01/08 07:36:02;;;;;;;12.65;2.30;;;;;;;2.02;79.08;101123.16;5044439;28;20021;-69
2022/01/08 07:38:28;;;;;;;9.07;2.55;;;;;;;2.02;78.99;101120.53;5038071;28;20036;-68
2022/01/08 07:40:53;;;;;;;9.75;2.65;;;;;;;2.03;79.43;101108.44;5033813;28;20028;-67
2022/01/08 07:43:19;;;;;;;10.93;2.63;;;;;;;2.06;79.12;101112.78;5034693;28;20360;-68
2022/01/08 07:45:45;;;;;;;9.45;3.08;;;;;;;2.00;79.37;101114.47;5034008;28;20022;-66
2022/01/08 07:48:10;;;;;;;10.25;2.10;;;;;;;2.04;79.42;101115.34;5035712;28;20021;-67
2022/01/08 07:50:35;;;;;;;13.25;2.30;;;;;;;2.08;79.55;101117.09;5036131;28;20040;-66
2022/01/08 07:53:01;;;;;;;10.55;2.15;;;;;;;2.11;79.52;101111.94;5032787;28;20029;-67
2022/01/08 07:55:26;;;;;;;8.55;2.70;;;;;;;2.06;79.85;101117.97;5035040;28;20096;-68
2022/01/08 07:57:51;;;;;;;14.70;2.47;;;;;;;2.08;79.70;101113.66;5025197;28;20029;-65
2022/01/08 08:00:17;;;;;;;12.43;3.15;;;;;;;2.03;80.08;101113.63;5032451;28;20021;-66
2022/01/08 08:02:42;;;;;;;6.45;2.20;;;;;;;2.04;80.23;101106.72;5035847;28;20017;-65
2022/01/08 08:05:08;;;;;;;10.82;2.70;;;;;;;1.99;80.73;101104.94;5037701;28;20093;-65
2022/01/08 08:07:37;;;;;;;12.63;2.50;;;;;;;2.04;80.89;101101.50;5037761;28;20464;-66
2022/01/08 08:10:04;;;;;;;15.38;2.55;;;;;;;2.02;80.75;101102.34;5013632;28;20029;-64
2022/01/08 08:12:29;;;;;;;22.85;2.40;;;;;;;2.00;80.91;101098.00;5037342;28;20476;-68
2022/01/08 08:14:55;;;;;;;13.05;2.40;;;;;;;2.02;80.82;101094.56;5045793;28;20032;-68
2022/01/08 08:17:20;;;;;;;9.68;2.80;;;;;;;2.00;81.10;101085.00;5037677;28;20046;-67
2022/01/08 08:19:45;;;;;;;17.38;2.83;;;;;;;2.02;81.10;101083.31;5039626;28;20045;-65
2022/01/08 08:22:10;;;;;;;15.48;3.20;;;;;;;2.06;81.17;101085.06;5038094;28;20107;-66
2022/01/08 08:24:36;;;;;;;13.07;3.50;;;;;;;2.08;81.22;101080.72;5038613;28;20422;-71
2022/01/08 08:27:01;;;;;;;15.95;4.22;;;;;;;2.10;81.05;101078.13;5037779;28;20529;-69
2022/01/08 08:29:26;;;;;;;12.27;4.30;;;;;;;2.08;81.31;101078.13;5039382;28;20029;-66
2022/01/08 08:31:52;;;;;;;13.40;4.70;;;;;;;2.10;81.69;101075.53;5041388;28;20025;-66
2022/01/08 08:34:17;;;;;;;16.77;5.18;;;;;;;2.13;81.77;101073.81;5039349;28;20021;-70
2022/01/08 08:36:42;;;;;;;13.25;6.15;;;;;;;2.22;81.44;101067.78;5027692;28;20032;-70
2022/01/08 08:39:08;;;;;;;23.88;5.28;;;;;;;2.24;81.46;101066.06;5037895;28;20024;-68
2022/01/08 08:41:33;;;;;;;14.90;5.30;;;;;;;2.27;81.71;101062.63;5031868;28;20788;-66
2022/01/08 08:43:58;;;;;;;15.90;5.03;;;;;;;2.33;81.57;101059.16;5036475;28;20029;-63
2022/01/08 08:46:24;;;;;;;17.02;5.72;;;;;;;2.31;81.74;101050.47;5049099;28;20025;-69
2022/01/08 08:48:49;;;;;;;16.30;6.07;;;;;;;2.33;81.91;101048.75;5045827;28;20074;-69
2022/01/08 08:51:15;;;;;;;29.88;6.82;;;;;;;2.30;81.96;101048.75;5048093;28;20059;-69
2022/01/08 08:53:41;;;;;;;16.25;5.97;;;;;;;2.31;82.09;101046.16;5047539;28;20025;-71
2022/01/08 08:56:07;;;;;;;12.93;6.20;;;;;;;2.35;82.07;101047.06;5046834;28;20025;-71
2022/01/08 08:58:32;;;;;;;16.08;6.78;;;;;;;2.39;81.77;101043.59;5048145;28;20249;-70
2022/01/08 09:00:57;;;;;;;15.05;6.40;;;;;;;2.41;81.80;101044.47;5046802;28;20100;-70
2022/01/08 09:03:23;;;;;;;16.52;6.88;;;;;;;2.46;81.37;101045.34;5048358;28;20063;-69
2022/01/08 09:05:48;;;;;;;18.77;6.70;;;;;;;2.46;81.63;101036.66;5046076;28;20131;-70
2022/01/08 09:08:13;;;;;;;17.40;6.68;;;;;;;2.42;81.36;101033.19;5043977;28;20264;-71
2022/01/08 09:10:39;;;;;;;16.00;7.65;;;;;;;2.39;82.06;101022.78;5045984;28;20100;-69
2022/01/08 09:13:04;;;;;;;18.38;7.10;;;;;;;2.44;81.72;101020.19;5028952;28;20040;-71
2022/01/08 09:15:29;;;;;;;24.48;8.30;;;;;;;2.51;81.47;101022.81;5041295;28;20531;-69
2022/01/08 09:17:57;;;;;;;20.95;8.95;;;;;;;2.48;81.69;101011.53;5045964;28;20025;-67
2022/01/08 09:20:23;;;;;;;17.80;9.23;;;;;;;2.45;81.91;101002.00;5045712;28;20021;-69
2022/01/08 09:22:49;;;;;;;19.08;8.65;;;;;;;2.58;81.55;101008.09;5044922;28;20502;-69
2022/01/08 09:25:14;;;;;;;22.98;8.88;;;;;;;2.62;81.30;101007.22;5044875;28;20021;-68
2022/01/08 09:27:39;;;;;;;14.40;8.77;;;;;;;2.66;81.36;101005.50;5043891;28;20035;-66
2022/01/08 09:30:06;;;;;;;20.98;9.18;;;;;;;2.72;81.30;100999.44;5045443;28;20029;-66
2022/01/08 09:32:31;;;;;;;14.98;7.57;;;;;;;2.74;81.09;100987.31;5043783;28;20535;-66
2022/01/08 09:34:57;;;;;;;17.08;8.65;;;;;;;2.76;81.25;100977.75;5024633;28;20063;-66
2022/01/08 09:37:22;;;;;;;31.60;8.38;;;;;;;2.84;80.91;100980.34;5044076;28;20853;-66
2022/01/08 09:39:47;;;;;;;15.82;8.75;;;;;;;2.84;80.71;100970.81;5027592;28;20017;-67
2022/01/08 09:42:13;;;;;;;21.30;8.70;;;;;;;2.87;80.58;100968.22;5046792;28;20025;-66
2022/01/08 09:44:42;;;;;;;19.65;8.85;;;;;;;2.87;80.42;100965.63;5045274;28;20100;-66
2022/01/08 09:47:08;;;;;;;16.63;8.80;;;;;;;2.86;80.27;100950.84;5043471;28;20059;-68
2022/01/08 09:49:33;;;;;;;15.10;7.80;;;;;;;2.95;80.45;100951.75;5046012;28;20122;-68
2022/01/08 09:52:00;;;;;;;15.90;8.40;;;;;;;3.00;80.06;100945.66;5042970;28;20033;-69
2022/01/08 09:54:27;;;;;;;15.88;9.38;;;;;;;3.08;79.57;100950.00;5046297;28;20021;-67
2022/01/08 09:56:55;;;;;;;17.08;8.82;;;;;;;3.09;79.43;100936.09;5043537;28;20111;-67
2022/01/08 09:59:21;;;;;;;14.00;8.00;;;;;;;3.15;78.98;100925.66;5046473;28;20111;-65
2022/01/08 10:01:53;;;;;;;19.02;8.63;;;;;;;3.08;79.09;100929.16;5046591;28;20104;-66
2022/01/08 10:04:23;;;;;;;17.73;9.10;;;;;;;3.15;78.68;100925.66;5044634;28;20390;-65
2022/01/08 10:06:48;;;;;;;14.15;8.23;;;;;;;3.17;78.53;100916.13;5045968;28;20028;-65
2022/01/08 10:09:17;;;;;;;15.48;8.40;;;;;;;3.20;78.54;100912.66;5046265;28;20447;-66
2022/01/08 10:11:49;;;;;;;11.45;7.28;;;;;;;3.21;78.33;100904.84;5047801;28;20063;-67
2022/01/08 10:14:27;;;;;;;16.13;8.43;;;;;;;3.24;78.32;100898.75;5012686;28;20018;-65
2022/01/08 10:19:37;;;;;;;17.60;8.57;;;;;;;3.25;77.84;100880.50;5066666;28;20493;-67
2022/01/08 10:22:14;;;;;;;13.38;7.15;;;;;;;3.35;77.49;100868.34;5065167;28;20103;-65
2022/01/08 10:24:39;;;;;;;17.48;7.70;;;;;;;3.38;77.26;100857.91;5066897;28;20095;-65
2022/01/08 10:27:06;;;;;;;20.38;7.45;;;;;;;3.44;76.80;100856.13;5065328;28;20028;-65
2022/01/08 10:29:33;;;;;;;14.80;7.60;;;;;;;3.52;76.69;100842.22;5061496;28;20027;-65
2022/01/08 10:31:59;;;;;;;19.83;8.18;;;;;;;3.56;76.45;100826.56;5065968;28;20036;-65
2022/01/08 10:34:30;;;;;;;16.05;7.72;;;;;;;3.62;76.34;100823.94;5065791;28;20066;-65
2022/01/08 10:36:55;;;;;;;16.92;7.25;;;;;;;3.60;76.13;100823.06;5065303;28;20029;-67
2022/01/08 10:39:27;;;;;;;20.23;8.02;;;;;;;3.68;75.90;100823.91;5059783;28;20115;-66
2022/01/08 10:41:53;;;;;;;12.45;6.70;;;;;;;3.70;75.93;100819.53;5065150;28;20028;-65
2022/01/08 10:44:24;;;;;;;12.88;7.43;;;;;;;3.65;76.09;100819.56;5064933;28;20020;-67
2022/01/08 10:47:01;;;;;;;19.88;6.88;;;;;;;3.72;75.75;100807.38;5055078;28;20033;-67
2022/01/08 10:49:41;;;;;;;17.65;7.55;;;;;;;3.72;76.01;100791.72;5039390;28;20209;-66
2022/01/08 10:52:12;;;;;;;12.77;6.22;;;;;;;3.80;75.51;100794.28;5033929;28;20013;-67
2022/01/08 10:54:42;;;;;;;11.93;6.70;;;;;;;3.99;74.80;100774.16;5034228;28;20048;-68
2022/01/08 10:57:11;;;;;;;16.63;6.68;;;;;;;4.02;74.46;100768.06;5044605;28;20087;-67
2022/01/08 10:59:37;;;;;;;10.23;6.53;;;;;;;4.04;74.38;100766.31;5045848;28;20121;-67
2022/01/08 11:02:03;;;;;;;12.68;7.35;;;;;;;4.13;74.16;100755.78;5045782;28;20096;-67
2022/01/08 11:04:32;;;;;;;12.70;6.50;;;;;;;4.06;74.21;100743.69;5044887;28;20140;-65
2022/01/08 11:07:17;;;;;;;13.20;5.80;;;;;;;3.99;74.00;100732.44;5045192;28;20017;-69
2022/01/08 11:09:44;;;;;;;11.68;5.70;;;;;;;3.97;74.07;100733.34;5041284;28;20040;-69
2022/01/08 11:12:14;;;;;;;13.15;5.47;;;;;;;4.00;74.27;100717.69;5041049;28;20059;-66
2022/01/08 11:17:27;;;;;;;10.52;4.38;;;;;;;4.21;73.16;100706.16;5025134;28;20447;-69
2022/01/08 11:20:04;;;;;;;10.48;4.50;;;;;;;4.17;73.10;100699.25;5025764;28;20029;-70
2022/01/08 11:22:31;;;;;;;9.10;4.03;;;;;;;4.20;72.99;100688.81;5025096;28;20047;-72
2022/01/08 11:25:12;;;;;;;11.55;3.60;;;;;;;4.15;73.41;100686.25;5040398;28;20055;-69
2022/01/08 11:27:46;;;;;;;13.45;4.40;;;;;;;4.31;72.94;100675.66;5045399;28;20059;-70
2022/01/08 11:30:15;;;;;;;9.75;3.78;;;;;;;4.39;72.71;100671.22;5044735;28;20032;-70
2022/01/08 11:32:41;;;;;;;7.85;3.03;;;;;;;4.47;72.17;100672.88;5045939;28;20081;-70
2022/01/08 11:35:09;;;;;;;8.35;3.58;;;;;;;4.44;72.14;100660.72;5044465;28;20072;-71
2022/01/08 11:37:34;;;;;;;10.95;4.13;;;;;;;4.51;72.14;100667.59;5044541;28;20794;-70
2022/01/08 11:40:03;;;;;;;7.55;4.32;;;;;;;4.49;72.40;100653.69;5044253;28;20295;-68
2022/01/08 11:42:29;;;;;;;10.63;4.10;;;;;;;4.47;72.71;100642.44;5026481;28;20013;-70
2022/01/08 11:44:55;;;;;;;12.13;4.07;;;;;;;4.59;72.20;100643.16;5045166;28;20498;-68
2022/01/08 11:47:21;;;;;;;7.97;3.90;;;;;;;4.58;72.43;100633.63;5026878;28;20182;-67
2022/01/08 11:49:46;;;;;;;9.20;3.83;;;;;;;4.50;72.72;100623.25;5026692;28;20543;-70
2022/01/08 11:52:22;;;;;;;9.18;4.03;;;;;;;4.61;72.87;100607.47;5025958;28;20063;-68
2022/01/08 11:54:50;;;;;;;10.48;4.10;;;;;;;4.59;73.14;100601.41;5044583;28;20021;-69